sensor_id;sensor_type;location;lat;lon;timestamp;P1;durP1;ratioP1;P2;durP2;ratioP2
13588;SDS011;6865;52.552;13.434;2023-04-24T00:01:34;5.50;;;4.60;;
13588;SDS011;6865;52.552;13.434;2023-04-24T00:04:03;6.03;;;4.20;;
13588;SDS011;6865;52.552;13.434;2023-04-24T00:06:30;4.97;;;4.07;;
13588;SDS011;6865;52.552;13.434;2023-04-24T00:09:00;6.87;;;4.40;;
13588;SDS011;6865;52.552;13.434;2023-04-24T00:11:27;4.67;;;4.23;;
13588;SDS011;6865;52.552;13.434;2023-04-24T00:13:53;7.00;;;4.60;;
13588;SDS011;6865;52.552;13.434;2023-04-24T00:16:20;5.03;;;4.53;;
13588;SDS011;6865;52.552;13.434;2023-04-24T00:18:47;4.77;;;4.37;;
13588;SDS011;6865;52.552;13.434;2023-04-24T00:21:14;4.40;;;4.00;;
13588;SDS011;6865;52.552;13.434;2023-04-24T00:23:43;5.07;;;4.57;;
13588;SDS011;6865;52.552;13.434;2023-04-24T00:26:10;5.10;;;4.60;;
13588;SDS011;6865;52.552;13.434;2023-04-24T00:28:37;4.47;;;4.07;;
13588;SDS011;6865;52.552;13.434;2023-04-24T00:31:03;4.47;;;4.07;;
13588;SDS011;6865;52.552;13.434;2023-04-24T00:33:30;5.00;;;4.50;;
13588;SDS011;6865;52.552;13.434;2023-04-24T00:35:57;5.10;;;4.53;;
13588;SDS011;6865;52.552;13.434;2023-04-24T00:38:23;5.20;;;4.70;;
13588;SDS011;6865;52.552;13.434;2023-04-24T00:40:50;4.87;;;4.13;;
13588;SDS011;6865;52.552;13.434;2023-04-24T00:43:17;5.10;;;4.60;;
13588;SDS011;6865;52.552;13.434;2023-04-24T00:45:44;4.87;;;4.30;;
13588;SDS011;6865;52.552;13.434;2023-04-24T00:48:10;4.87;;;4.37;;
13588;SDS011;6865;52.552;13.434;2023-04-24T00:50:38;4.97;;;4.47;;
13588;SDS011;6865;52.552;13.434;2023-04-24T00:53:05;5.83;;;4.40;;
13588;SDS011;6865;52.552;13.434;2023-04-24T00:55:32;5.13;;;4.40;;
13588;SDS011;6865;52.552;13.434;2023-04-24T00:57:58;5.67;;;4.70;;
13588;SDS011;6865;52.552;13.434;2023-04-24T01:00:25;4.70;;;4.23;;
13588;SDS011;6865;52.552;13.434;2023-04-24T01:02:53;5.43;;;4.67;;
13588;SDS011;6865;52.552;13.434;2023-04-24T01:05:19;6.07;;;4.70;;
13588;SDS011;6865;52.552;13.434;2023-04-24T01:07:46;5.10;;;4.60;;
13588;SDS011;6865;52.552;13.434;2023-04-24T01:10:15;5.03;;;4.50;;
13588;SDS011;6865;52.552;13.434;2023-04-24T01:12:43;5.27;;;4.47;;
13588;SDS011;6865;52.552;13.434;2023-04-24T01:15:10;4.87;;;4.47;;
13588;SDS011;6865;52.552;13.434;2023-04-24T01:17:37;5.10;;;4.60;;
13588;SDS011;6865;52.552;13.434;2023-04-24T01:20:04;5.00;;;4.60;;
13588;SDS011;6865;52.552;13.434;2023-04-24T01:22:35;5.93;;;4.50;;
13588;SDS011;6865;52.552;13.434;2023-04-24T01:25:02;5.27;;;4.60;;
13588;SDS011;6865;52.552;13.434;2023-04-24T01:27:29;5.23;;;4.40;;
13588;SDS011;6865;52.552;13.434;2023-04-24T01:29:56;5.43;;;4.53;;
13588;SDS011;6865;52.552;13.434;2023-04-24T01:32:24;4.87;;;4.47;;
13588;SDS011;6865;52.552;13.434;2023-04-24T01:34:51;5.70;;;4.27;;
13588;SDS011;6865;52.552;13.434;2023-04-24T01:37:18;7.30;;;5.33;;
13588;SDS011;6865;52.552;13.434;2023-04-24T01:39:45;4.53;;;4.13;;
13588;SDS011;6865;52.552;13.434;2023-04-24T01:42:12;5.20;;;4.23;;
13588;SDS011;6865;52.552;13.434;2023-04-24T01:44:39;4.97;;;4.23;;
13588;SDS011;6865;52.552;13.434;2023-04-24T01:47:06;5.00;;;4.50;;
13588;SDS011;6865;52.552;13.434;2023-04-24T01:49:33;5.10;;;4.37;;
13588;SDS011;6865;52.552;13.434;2023-04-24T01:52:00;5.50;;;4.80;;
13588;SDS011;6865;52.552;13.434;2023-04-24T01:54:27;6.73;;;4.83;;
13588;SDS011;6865;52.552;13.434;2023-04-24T01:56:53;5.37;;;4.87;;
13588;SDS011;6865;52.552;13.434;2023-04-24T01:59:20;5.00;;;4.50;;
13588;SDS011;6865;52.552;13.434;2023-04-24T02:01:47;5.73;;;5.17;;
13588;SDS011;6865;52.552;13.434;2023-04-24T02:04:14;5.53;;;4.97;;
13588;SDS011;6865;52.552;13.434;2023-04-24T02:06:41;5.60;;;4.73;;
13588;SDS011;6865;52.552;13.434;2023-04-24T02:09:08;8.13;;;5.00;;
13588;SDS011;6865;52.552;13.434;2023-04-24T02:11:34;5.27;;;4.77;;
13588;SDS011;6865;52.552;13.434;2023-04-24T02:14:01;5.60;;;5.10;;
13588;SDS011;6865;52.552;13.434;2023-04-24T02:16:28;5.73;;;4.93;;
13588;SDS011;6865;52.552;13.434;2023-04-24T02:18:59;7.83;;;5.13;;
13588;SDS011;6865;52.552;13.434;2023-04-24T02:21:25;7.60;;;5.47;;
13588;SDS011;6865;52.552;13.434;2023-04-24T02:23:53;5.80;;;5.20;;
13588;SDS011;6865;52.552;13.434;2023-04-24T02:26:20;6.60;;;5.27;;
13588;SDS011;6865;52.552;13.434;2023-04-24T02:28:47;5.90;;;5.40;;
13588;SDS011;6865;52.552;13.434;2023-04-24T02:31:13;6.53;;;5.30;;
13588;SDS011;6865;52.552;13.434;2023-04-24T02:33:40;7.30;;;5.57;;
13588;SDS011;6865;52.552;13.434;2023-04-24T02:36:07;7.07;;;5.03;;
13588;SDS011;6865;52.552;13.434;2023-04-24T02:38:33;5.70;;;5.07;;
13588;SDS011;6865;52.552;13.434;2023-04-24T02:41:00;5.80;;;5.07;;
13588;SDS011;6865;52.552;13.434;2023-04-24T02:43:28;6.87;;;5.77;;
13588;SDS011;6865;52.552;13.434;2023-04-24T02:45:54;6.27;;;5.40;;
13588;SDS011;6865;52.552;13.434;2023-04-24T02:48:21;5.80;;;5.20;;
13588;SDS011;6865;52.552;13.434;2023-04-24T02:50:48;6.77;;;5.90;;
13588;SDS011;6865;52.552;13.434;2023-04-24T02:53:14;6.40;;;5.80;;
13588;SDS011;6865;52.552;13.434;2023-04-24T02:55:41;6.30;;;5.53;;
13588;SDS011;6865;52.552;13.434;2023-04-24T02:58:08;6.80;;;5.80;;
13588;SDS011;6865;52.552;13.434;2023-04-24T03:00:34;6.17;;;5.57;;
13588;SDS011;6865;52.552;13.434;2023-04-24T03:03:01;7.73;;;6.23;;
13588;SDS011;6865;52.552;13.434;2023-04-24T03:05:28;6.20;;;5.53;;
13588;SDS011;6865;52.552;13.434;2023-04-24T03:07:57;7.30;;;5.93;;
13588;SDS011;6865;52.552;13.434;2023-04-24T03:10:23;6.40;;;5.60;;
13588;SDS011;6865;52.552;13.434;2023-04-24T03:12:50;7.03;;;6.23;;
13588;SDS011;6865;52.552;13.434;2023-04-24T03:15:17;7.63;;;6.20;;
13588;SDS011;6865;52.552;13.434;2023-04-24T03:17:44;7.37;;;6.43;;
13588;SDS011;6865;52.552;13.434;2023-04-24T03:20:10;7.60;;;6.80;;
13588;SDS011;6865;52.552;13.434;2023-04-24T03:22:37;7.03;;;5.80;;
13588;SDS011;6865;52.552;13.434;2023-04-24T03:25:04;6.67;;;5.90;;
13588;SDS011;6865;52.552;13.434;2023-04-24T03:27:31;8.07;;;6.40;;
13588;SDS011;6865;52.552;13.434;2023-04-24T03:29:58;7.23;;;6.43;;
13588;SDS011;6865;52.552;13.434;2023-04-24T03:32:24;7.83;;;6.00;;
13588;SDS011;6865;52.552;13.434;2023-04-24T03:34:51;7.10;;;6.40;;
13588;SDS011;6865;52.552;13.434;2023-04-24T03:37:18;7.00;;;5.90;;
13588;SDS011;6865;52.552;13.434;2023-04-24T03:39:44;8.00;;;5.80;;
13588;SDS011;6865;52.552;13.434;2023-04-24T03:42:11;8.30;;;6.07;;
13588;SDS011;6865;52.552;13.434;2023-04-24T03:44:37;9.50;;;6.27;;
13588;SDS011;6865;52.552;13.434;2023-04-24T03:47:04;7.17;;;5.90;;
13588;SDS011;6865;52.552;13.434;2023-04-24T03:49:31;6.70;;;6.10;;
13588;SDS011;6865;52.552;13.434;2023-04-24T03:51:57;6.37;;;5.70;;
13588;SDS011;6865;52.552;13.434;2023-04-24T03:54:24;6.80;;;6.07;;
13588;SDS011;6865;52.552;13.434;2023-04-24T03:56:51;6.00;;;5.50;;
13588;SDS011;6865;52.552;13.434;2023-04-24T03:59:17;5.73;;;5.23;;
13588;SDS011;6865;52.552;13.434;2023-04-24T04:01:44;6.07;;;5.47;;
13588;SDS011;6865;52.552;13.434;2023-04-24T04:04:11;6.40;;;5.77;;
13588;SDS011;6865;52.552;13.434;2023-04-24T04:06:38;6.70;;;5.93;;
13588;SDS011;6865;52.552;13.434;2023-04-24T04:09:05;7.83;;;6.30;;
13588;SDS011;6865;52.552;13.434;2023-04-24T04:11:31;6.20;;;5.53;;
13588;SDS011;6865;52.552;13.434;2023-04-24T04:13:58;5.90;;;5.30;;
13588;SDS011;6865;52.552;13.434;2023-04-24T04:16:25;5.87;;;5.33;;
13588;SDS011;6865;52.552;13.434;2023-04-24T04:18:51;6.30;;;5.70;;
13588;SDS011;6865;52.552;13.434;2023-04-24T04:21:18;6.93;;;5.63;;
13588;SDS011;6865;52.552;13.434;2023-04-24T04:23:44;6.23;;;5.30;;
13588;SDS011;6865;52.552;13.434;2023-04-24T04:26:11;7.37;;;5.40;;
13588;SDS011;6865;52.552;13.434;2023-04-24T04:28:38;7.33;;;5.47;;
13588;SDS011;6865;52.552;13.434;2023-04-24T04:31:05;6.80;;;5.23;;
13588;SDS011;6865;52.552;13.434;2023-04-24T04:33:33;6.90;;;5.90;;
13588;SDS011;6865;52.552;13.434;2023-04-24T04:36:02;7.17;;;5.10;;
13588;SDS011;6865;52.552;13.434;2023-04-24T04:38:29;6.13;;;5.30;;
13588;SDS011;6865;52.552;13.434;2023-04-24T04:40:56;5.83;;;5.23;;
13588;SDS011;6865;52.552;13.434;2023-04-24T04:43:23;5.53;;;4.93;;
13588;SDS011;6865;52.552;13.434;2023-04-24T04:45:51;6.50;;;5.20;;
13588;SDS011;6865;52.552;13.434;2023-04-24T04:48:18;5.83;;;4.97;;
13588;SDS011;6865;52.552;13.434;2023-04-24T04:50:45;8.13;;;5.37;;
13588;SDS011;6865;52.552;13.434;2023-04-24T04:53:11;7.83;;;5.23;;
13588;SDS011;6865;52.552;13.434;2023-04-24T04:55:38;7.33;;;5.63;;
13588;SDS011;6865;52.552;13.434;2023-04-24T04:58:05;6.87;;;5.10;;
13588;SDS011;6865;52.552;13.434;2023-04-24T05:00:31;7.10;;;5.27;;
13588;SDS011;6865;52.552;13.434;2023-04-24T05:03:01;6.77;;;5.53;;
13588;SDS011;6865;52.552;13.434;2023-04-24T05:05:45;6.00;;;5.40;;
13588;SDS011;6865;52.552;13.434;2023-04-24T05:08:12;6.23;;;5.50;;
13588;SDS011;6865;52.552;13.434;2023-04-24T05:10:52;5.50;;;5.00;;
13588;SDS011;6865;52.552;13.434;2023-04-24T05:13:19;5.97;;;5.27;;
13588;SDS011;6865;52.552;13.434;2023-04-24T05:15:57;5.37;;;4.87;;
13588;SDS011;6865;52.552;13.434;2023-04-24T05:18:24;5.30;;;4.60;;
13588;SDS011;6865;52.552;13.434;2023-04-24T05:20:50;5.97;;;5.03;;
13588;SDS011;6865;52.552;13.434;2023-04-24T05:23:17;5.53;;;4.93;;
13588;SDS011;6865;52.552;13.434;2023-04-24T05:25:43;6.70;;;4.73;;
13588;SDS011;6865;52.552;13.434;2023-04-24T05:28:10;6.40;;;4.77;;
13588;SDS011;6865;52.552;13.434;2023-04-24T05:30:37;5.63;;;4.73;;
13588;SDS011;6865;52.552;13.434;2023-04-24T05:33:03;4.63;;;3.93;;
13588;SDS011;6865;52.552;13.434;2023-04-24T05:35:30;5.07;;;3.93;;
13588;SDS011;6865;52.552;13.434;2023-04-24T05:37:57;6.83;;;4.37;;
13588;SDS011;6865;52.552;13.434;2023-04-24T05:40:23;4.05;;;3.65;;
13588;SDS011;6865;52.552;13.434;2023-04-24T05:42:51;4.25;;;3.60;;
13588;SDS011;6865;52.552;13.434;2023-04-24T05:45:17;5.28;;;3.20;;
13588;SDS011;6865;52.552;13.434;2023-04-24T05:47:44;3.33;;;3.03;;
13588;SDS011;6865;52.552;13.434;2023-04-24T05:50:11;3.15;;;2.85;;
13588;SDS011;6865;52.552;13.434;2023-04-24T05:52:38;2.60;;;2.35;;
13588;SDS011;6865;52.552;13.434;2023-04-24T05:55:05;3.03;;;2.50;;
13588;SDS011;6865;52.552;13.434;2023-04-24T05:57:31;3.90;;;3.05;;
13588;SDS011;6865;52.552;13.434;2023-04-24T05:59:58;3.15;;;2.85;;
13588;SDS011;6865;52.552;13.434;2023-04-24T06:02:25;3.15;;;2.60;;
13588;SDS011;6865;52.552;13.434;2023-04-24T06:04:52;7.85;;;3.15;;
13588;SDS011;6865;52.552;13.434;2023-04-24T06:07:19;3.20;;;2.45;;
13588;SDS011;6865;52.552;13.434;2023-04-24T06:09:46;2.75;;;2.47;;
13588;SDS011;6865;52.552;13.434;2023-04-24T06:12:13;3.80;;;2.47;;
13588;SDS011;6865;52.552;13.434;2023-04-24T06:14:39;3.63;;;2.33;;
13588;SDS011;6865;52.552;13.434;2023-04-24T06:17:06;2.60;;;2.40;;
13588;SDS011;6865;52.552;13.434;2023-04-24T06:19:32;7.82;;;2.75;;
13588;SDS011;6865;52.552;13.434;2023-04-24T06:21:59;3.10;;;2.22;;
13588;SDS011;6865;52.552;13.434;2023-04-24T06:24:28;3.00;;;2.42;;
13588;SDS011;6865;52.552;13.434;2023-04-24T06:26:55;4.85;;;2.45;;
13588;SDS011;6865;52.552;13.434;2023-04-24T06:29:23;6.35;;;2.53;;
13588;SDS011;6865;52.552;13.434;2023-04-24T06:31:49;3.90;;;2.83;;
13588;SDS011;6865;52.552;13.434;2023-04-24T06:34:16;80.22;;;7.30;;
13588;SDS011;6865;52.552;13.434;2023-04-24T06:36:43;5.72;;;2.78;;
13588;SDS011;6865;52.552;13.434;2023-04-24T06:39:09;3.78;;;2.10;;
13588;SDS011;6865;52.552;13.434;2023-04-24T06:41:36;2.22;;;1.98;;
13588;SDS011;6865;52.552;13.434;2023-04-24T06:44:02;2.90;;;2.13;;
13588;SDS011;6865;52.552;13.434;2023-04-24T06:46:29;7.20;;;2.60;;
13588;SDS011;6865;52.552;13.434;2023-04-24T06:48:56;8.85;;;3.05;;
13588;SDS011;6865;52.552;13.434;2023-04-24T06:51:23;3.70;;;1.98;;
13588;SDS011;6865;52.552;13.434;2023-04-24T06:53:51;14.18;;;3.45;;
13588;SDS011;6865;52.552;13.434;2023-04-24T06:56:19;3.50;;;2.13;;
13588;SDS011;6865;52.552;13.434;2023-04-24T06:58:46;3.65;;;2.10;;
13588;SDS011;6865;52.552;13.434;2023-04-24T07:01:12;5.70;;;2.38;;
13588;SDS011;6865;52.552;13.434;2023-04-24T07:03:39;3.53;;;1.95;;
13588;SDS011;6865;52.552;13.434;2023-04-24T07:06:06;2.15;;;1.70;;
13588;SDS011;6865;52.552;13.434;2023-04-24T07:08:33;3.22;;;1.60;;
13588;SDS011;6865;52.552;13.434;2023-04-24T07:11:00;2.05;;;1.58;;
13588;SDS011;6865;52.552;13.434;2023-04-24T07:13:26;3.30;;;1.77;;
13588;SDS011;6865;52.552;13.434;2023-04-24T07:15:53;2.13;;;1.35;;
13588;SDS011;6865;52.552;13.434;2023-04-24T07:18:21;1.90;;;1.60;;
13588;SDS011;6865;52.552;13.434;2023-04-24T07:20:48;2.10;;;1.42;;
13588;SDS011;6865;52.552;13.434;2023-04-24T07:23:16;4.78;;;1.58;;
13588;SDS011;6865;52.552;13.434;2023-04-24T07:25:43;1.85;;;1.50;;
13588;SDS011;6865;52.552;13.434;2023-04-24T07:28:10;2.53;;;1.50;;
13588;SDS011;6865;52.552;13.434;2023-04-24T07:30:37;1.67;;;1.30;;
13588;SDS011;6865;52.552;13.434;2023-04-24T07:33:03;1.30;;;1.10;;
13588;SDS011;6865;52.552;13.434;2023-04-24T07:35:30;1.65;;;1.20;;
13588;SDS011;6865;52.552;13.434;2023-04-24T07:37:57;3.63;;;1.17;;
13588;SDS011;6865;52.552;13.434;2023-04-24T07:40:23;1.20;;;1.00;;
13588;SDS011;6865;52.552;13.434;2023-04-24T07:42:50;1.95;;;1.42;;
13588;SDS011;6865;52.552;13.434;2023-04-24T07:45:17;1.40;;;1.02;;
13588;SDS011;6865;52.552;13.434;2023-04-24T07:47:43;1.67;;;1.30;;
13588;SDS011;6865;52.552;13.434;2023-04-24T07:50:12;2.38;;;1.10;;
13588;SDS011;6865;52.552;13.434;2023-04-24T07:52:39;1.45;;;1.00;;
13588;SDS011;6865;52.552;13.434;2023-04-24T07:55:05;1.40;;;1.10;;
13588;SDS011;6865;52.552;13.434;2023-04-24T07:57:33;2.20;;;1.00;;
13588;SDS011;6865;52.552;13.434;2023-04-24T07:59:59;3.28;;;1.05;;
13588;SDS011;6865;52.552;13.434;2023-04-24T08:02:26;4.00;;;2.42;;
13588;SDS011;6865;52.552;13.434;2023-04-24T08:04:53;3.38;;;1.40;;
13588;SDS011;6865;52.552;13.434;2023-04-24T08:07:20;2.33;;;1.10;;
13588;SDS011;6865;52.552;13.434;2023-04-24T08:09:47;2.15;;;1.00;;
13588;SDS011;6865;52.552;13.434;2023-04-24T08:12:14;2.55;;;1.20;;
13588;SDS011;6865;52.552;13.434;2023-04-24T08:14:41;1.77;;;1.08;;
13588;SDS011;6865;52.552;13.434;2023-04-24T08:17:08;1.42;;;1.00;;
13588;SDS011;6865;52.552;13.434;2023-04-24T08:19:35;1.15;;;1.05;;
13588;SDS011;6865;52.552;13.434;2023-04-24T08:22:01;1.92;;;1.25;;
13588;SDS011;6865;52.552;13.434;2023-04-24T08:24:30;1.10;;;1.00;;
13588;SDS011;6865;52.552;13.434;2023-04-24T08:26:56;1.88;;;1.13;;
13588;SDS011;6865;52.552;13.434;2023-04-24T08:29:24;2.58;;;1.05;;
13588;SDS011;6865;52.552;13.434;2023-04-24T08:31:51;1.27;;;1.15;;
13588;SDS011;6865;52.552;13.434;2023-04-24T08:34:17;1.40;;;0.90;;
13588;SDS011;6865;52.552;13.434;2023-04-24T08:36:44;1.00;;;0.95;;
13588;SDS011;6865;52.552;13.434;2023-04-24T08:39:12;1.65;;;0.90;;
13588;SDS011;6865;52.552;13.434;2023-04-24T08:41:41;1.17;;;1.00;;
13588;SDS011;6865;52.552;13.434;2023-04-24T08:44:12;3.97;;;1.00;;
13588;SDS011;6865;52.552;13.434;2023-04-24T08:46:40;1.40;;;0.98;;
13588;SDS011;6865;52.552;13.434;2023-04-24T08:49:12;1.15;;;0.95;;
13588;SDS011;6865;52.552;13.434;2023-04-24T08:51:44;2.00;;;1.02;;
13588;SDS011;6865;52.552;13.434;2023-04-24T08:54:13;2.50;;;1.27;;
13588;SDS011;6865;52.552;13.434;2023-04-24T08:56:40;1.88;;;1.08;;
13588;SDS011;6865;52.552;13.434;2023-04-24T08:59:10;1.13;;;1.00;;
13588;SDS011;6865;52.552;13.434;2023-04-24T09:01:37;5.63;;;1.15;;
13588;SDS011;6865;52.552;13.434;2023-04-24T09:04:07;1.23;;;1.08;;
13588;SDS011;6865;52.552;13.434;2023-04-24T09:06:36;1.25;;;0.98;;
13588;SDS011;6865;52.552;13.434;2023-04-24T09:09:03;2.15;;;1.17;;
13588;SDS011;6865;52.552;13.434;2023-04-24T09:11:30;1.70;;;0.95;;
13588;SDS011;6865;52.552;13.434;2023-04-24T09:13:58;2.72;;;1.00;;
13588;SDS011;6865;52.552;13.434;2023-04-24T09:16:27;1.45;;;0.90;;
13588;SDS011;6865;52.552;13.434;2023-04-24T09:18:55;1.88;;;1.02;;
13588;SDS011;6865;52.552;13.434;2023-04-24T09:21:21;2.88;;;0.93;;
13588;SDS011;6865;52.552;13.434;2023-04-24T09:23:58;5.43;;;1.00;;
13588;SDS011;6865;52.552;13.434;2023-04-24T09:26:29;1.83;;;1.17;;
13588;SDS011;6865;52.552;13.434;2023-04-24T09:28:58;1.10;;;1.00;;
13588;SDS011;6865;52.552;13.434;2023-04-24T09:31:26;1.05;;;0.82;;
13588;SDS011;6865;52.552;13.434;2023-04-24T09:36:30;1.13;;;0.88;;
13588;SDS011;6865;52.552;13.434;2023-04-24T09:39:12;2.75;;;1.40;;
13588;SDS011;6865;52.552;13.434;2023-04-24T09:41:45;4.18;;;1.20;;
13588;SDS011;6865;52.552;13.434;2023-04-24T09:44:14;1.77;;;1.13;;
13588;SDS011;6865;52.552;13.434;2023-04-24T09:46:44;1.70;;;1.20;;
13588;SDS011;6865;52.552;13.434;2023-04-24T09:49:13;2.22;;;1.10;;
13588;SDS011;6865;52.552;13.434;2023-04-24T09:51:41;5.28;;;1.83;;
13588;SDS011;6865;52.552;13.434;2023-04-24T09:54:16;1.98;;;1.00;;
13588;SDS011;6865;52.552;13.434;2023-04-24T09:56:45;1.90;;;1.20;;
13588;SDS011;6865;52.552;13.434;2023-04-24T09:59:13;1.80;;;1.10;;
13588;SDS011;6865;52.552;13.434;2023-04-24T10:01:41;3.10;;;1.55;;
13588;SDS011;6865;52.552;13.434;2023-04-24T10:04:15;2.85;;;1.33;;
13588;SDS011;6865;52.552;13.434;2023-04-24T10:06:47;3.22;;;1.25;;
13588;SDS011;6865;52.552;13.434;2023-04-24T10:09:19;3.83;;;1.10;;
13588;SDS011;6865;52.552;13.434;2023-04-24T10:11:48;1.70;;;1.30;;
13588;SDS011;6865;52.552;13.434;2023-04-24T10:14:17;2.38;;;1.35;;
13588;SDS011;6865;52.552;13.434;2023-04-24T10:16:54;1.10;;;1.00;;
13588;SDS011;6865;52.552;13.434;2023-04-24T10:19:25;1.98;;;1.10;;
13588;SDS011;6865;52.552;13.434;2023-04-24T10:21:52;0.98;;;0.88;;
13588;SDS011;6865;52.552;13.434;2023-04-24T10:24:20;1.63;;;1.02;;
13588;SDS011;6865;52.552;13.434;2023-04-24T10:26:47;1.60;;;1.10;;
13588;SDS011;6865;52.552;13.434;2023-04-24T10:29:16;1.80;;;1.08;;
13588;SDS011;6865;52.552;13.434;2023-04-24T10:31:45;3.22;;;1.10;;
13588;SDS011;6865;52.552;13.434;2023-04-24T10:34:14;2.30;;;1.52;;
13588;SDS011;6865;52.552;13.434;2023-04-24T10:36:43;1.20;;;1.10;;
13588;SDS011;6865;52.552;13.434;2023-04-24T10:39:14;1.00;;;0.90;;
13588;SDS011;6865;52.552;13.434;2023-04-24T10:41:41;2.60;;;0.98;;
13588;SDS011;6865;52.552;13.434;2023-04-24T10:44:09;1.50;;;1.10;;
13588;SDS011;6865;52.552;13.434;2023-04-24T10:46:37;2.25;;;1.15;;
13588;SDS011;6865;52.552;13.434;2023-04-24T10:49:05;2.10;;;1.10;;
13588;SDS011;6865;52.552;13.434;2023-04-24T10:51:46;3.70;;;1.30;;
13588;SDS011;6865;52.552;13.434;2023-04-24T10:54:28;1.67;;;1.05;;
13588;SDS011;6865;52.552;13.434;2023-04-24T11:02:40;1.35;;;1.10;;
13588;SDS011;6865;52.552;13.434;2023-04-24T11:05:15;1.40;;;1.00;;
13588;SDS011;6865;52.552;13.434;2023-04-24T11:10:39;2.65;;;1.10;;
13588;SDS011;6865;52.552;13.434;2023-04-24T11:13:10;3.17;;;1.20;;
13588;SDS011;6865;52.552;13.434;2023-04-24T11:15:41;2.55;;;1.20;;
13588;SDS011;6865;52.552;13.434;2023-04-24T11:18:14;1.58;;;1.10;;
13588;SDS011;6865;52.552;13.434;2023-04-24T11:20:42;2.33;;;1.10;;
13588;SDS011;6865;52.552;13.434;2023-04-24T11:23:11;1.90;;;1.10;;
13588;SDS011;6865;52.552;13.434;2023-04-24T11:25:38;2.53;;;1.13;;
13588;SDS011;6865;52.552;13.434;2023-04-24T11:28:05;2.08;;;1.05;;
13588;SDS011;6865;52.552;13.434;2023-04-24T11:30:32;2.42;;;1.10;;
13588;SDS011;6865;52.552;13.434;2023-04-24T11:33:04;0.95;;;0.88;;
13588;SDS011;6865;52.552;13.434;2023-04-24T11:35:35;1.75;;;1.02;;
13588;SDS011;6865;52.552;13.434;2023-04-24T11:38:05;1.45;;;1.10;;
13588;SDS011;6865;52.552;13.434;2023-04-24T11:40:49;1.38;;;1.10;;
13588;SDS011;6865;52.552;13.434;2023-04-24T11:43:17;1.85;;;1.20;;
13588;SDS011;6865;52.552;13.434;2023-04-24T11:45:48;9.95;;;1.30;;
13588;SDS011;6865;52.552;13.434;2023-04-24T11:48:19;2.45;;;1.10;;
13588;SDS011;6865;52.552;13.434;2023-04-24T11:50:50;1.63;;;1.20;;
13588;SDS011;6865;52.552;13.434;2023-04-24T11:53:18;2.55;;;1.15;;
13588;SDS011;6865;52.552;13.434;2023-04-24T11:55:46;1.10;;;1.00;;
13588;SDS011;6865;52.552;13.434;2023-04-24T11:58:13;1.27;;;1.08;;
13588;SDS011;6865;52.552;13.434;2023-04-24T12:00:40;1.30;;;0.88;;
13588;SDS011;6865;52.552;13.434;2023-04-24T12:03:09;1.13;;;1.00;;
13588;SDS011;6865;52.552;13.434;2023-04-24T12:05:38;3.35;;;1.73;;
13588;SDS011;6865;52.552;13.434;2023-04-24T12:08:06;2.08;;;1.08;;
13588;SDS011;6865;52.552;13.434;2023-04-24T12:10:33;1.55;;;1.00;;
13588;SDS011;6865;52.552;13.434;2023-04-24T12:13:01;1.88;;;1.30;;
13588;SDS011;6865;52.552;13.434;2023-04-24T12:15:27;2.35;;;1.00;;
13588;SDS011;6865;52.552;13.434;2023-04-24T12:17:55;1.95;;;1.10;;
13588;SDS011;6865;52.552;13.434;2023-04-24T12:20:26;1.75;;;1.20;;
13588;SDS011;6865;52.552;13.434;2023-04-24T12:22:55;1.70;;;1.08;;
13588;SDS011;6865;52.552;13.434;2023-04-24T12:25:26;1.83;;;1.30;;
13588;SDS011;6865;52.552;13.434;2023-04-24T12:30:31;1.40;;;1.30;;
13588;SDS011;6865;52.552;13.434;2023-04-24T12:32:59;4.00;;;1.55;;
13588;SDS011;6865;52.552;13.434;2023-04-24T12:35:27;1.25;;;1.10;;
13588;SDS011;6865;52.552;13.434;2023-04-24T12:37:55;2.17;;;1.40;;
13588;SDS011;6865;52.552;13.434;2023-04-24T12:40:31;1.95;;;1.15;;
13588;SDS011;6865;52.552;13.434;2023-04-24T12:42:58;2.30;;;1.20;;
13588;SDS011;6865;52.552;13.434;2023-04-24T12:45:24;2.63;;;0.93;;
13588;SDS011;6865;52.552;13.434;2023-04-24T12:47:51;5.20;;;1.50;;
13588;SDS011;6865;52.552;13.434;2023-04-24T12:50:18;3.80;;;1.30;;
13588;SDS011;6865;52.552;13.434;2023-04-24T12:52:44;3.08;;;1.08;;
13588;SDS011;6865;52.552;13.434;2023-04-24T12:55:11;1.30;;;1.20;;
13588;SDS011;6865;52.552;13.434;2023-04-24T12:57:39;3.85;;;1.00;;
13588;SDS011;6865;52.552;13.434;2023-04-24T13:00:06;3.55;;;1.27;;
13588;SDS011;6865;52.552;13.434;2023-04-24T13:02:34;4.82;;;1.10;;
13588;SDS011;6865;52.552;13.434;2023-04-24T13:05:01;1.58;;;0.90;;
13588;SDS011;6865;52.552;13.434;2023-04-24T13:07:28;1.80;;;1.10;;
13588;SDS011;6865;52.552;13.434;2023-04-24T13:09:55;2.90;;;1.17;;
13588;SDS011;6865;52.552;13.434;2023-04-24T13:12:23;3.28;;;1.25;;
13588;SDS011;6865;52.552;13.434;2023-04-24T13:14:50;2.75;;;1.10;;
13588;SDS011;6865;52.552;13.434;2023-04-24T13:17:18;2.25;;;1.17;;
13588;SDS011;6865;52.552;13.434;2023-04-24T13:19:45;3.50;;;1.20;;
13588;SDS011;6865;52.552;13.434;2023-04-24T13:22:12;2.38;;;1.23;;
13588;SDS011;6865;52.552;13.434;2023-04-24T13:24:39;1.60;;;1.20;;
13588;SDS011;6865;52.552;13.434;2023-04-24T13:27:07;1.55;;;1.13;;
13588;SDS011;6865;52.552;13.434;2023-04-24T13:29:35;2.85;;;1.30;;
13588;SDS011;6865;52.552;13.434;2023-04-24T13:32:02;2.95;;;1.40;;
13588;SDS011;6865;52.552;13.434;2023-04-24T13:34:29;3.15;;;1.27;;
13588;SDS011;6865;52.552;13.434;2023-04-24T13:36:56;2.15;;;1.20;;
13588;SDS011;6865;52.552;13.434;2023-04-24T13:39:24;1.55;;;0.95;;
13588;SDS011;6865;52.552;13.434;2023-04-24T13:41:52;1.55;;;1.20;;
13588;SDS011;6865;52.552;13.434;2023-04-24T13:44:20;2.35;;;1.38;;
13588;SDS011;6865;52.552;13.434;2023-04-24T13:46:49;3.00;;;1.15;;
13588;SDS011;6865;52.552;13.434;2023-04-24T13:49:20;4.03;;;1.40;;
13588;SDS011;6865;52.552;13.434;2023-04-24T13:51:47;2.88;;;1.58;;
13588;SDS011;6865;52.552;13.434;2023-04-24T13:54:14;1.63;;;1.00;;
13588;SDS011;6865;52.552;13.434;2023-04-24T13:56:40;1.77;;;1.10;;
13588;SDS011;6865;52.552;13.434;2023-04-24T13:59:07;1.38;;;1.17;;
13588;SDS011;6865;52.552;13.434;2023-04-24T14:01:34;1.65;;;1.10;;
13588;SDS011;6865;52.552;13.434;2023-04-24T14:04:02;2.40;;;1.10;;
13588;SDS011;6865;52.552;13.434;2023-04-24T14:06:29;3.97;;;1.30;;
13588;SDS011;6865;52.552;13.434;2023-04-24T14:08:55;1.83;;;1.10;;
13588;SDS011;6865;52.552;13.434;2023-04-24T14:11:22;2.75;;;1.25;;
13588;SDS011;6865;52.552;13.434;2023-04-24T14:13:49;1.60;;;1.10;;
13588;SDS011;6865;52.552;13.434;2023-04-24T14:16:16;1.60;;;1.25;;
13588;SDS011;6865;52.552;13.434;2023-04-24T14:18:43;1.95;;;1.25;;
13588;SDS011;6865;52.552;13.434;2023-04-24T14:21:11;4.22;;;1.17;;
13588;SDS011;6865;52.552;13.434;2023-04-24T14:23:37;1.63;;;1.00;;
13588;SDS011;6865;52.552;13.434;2023-04-24T14:26:04;2.75;;;1.65;;
13588;SDS011;6865;52.552;13.434;2023-04-24T14:28:32;1.08;;;0.98;;
13588;SDS011;6865;52.552;13.434;2023-04-24T14:30:58;2.47;;;1.17;;
13588;SDS011;6865;52.552;13.434;2023-04-24T14:33:25;2.20;;;1.17;;
13588;SDS011;6865;52.552;13.434;2023-04-24T14:35:52;1.85;;;1.23;;
13588;SDS011;6865;52.552;13.434;2023-04-24T14:38:19;2.00;;;1.30;;
13588;SDS011;6865;52.552;13.434;2023-04-24T14:40:45;1.75;;;1.15;;
13588;SDS011;6865;52.552;13.434;2023-04-24T14:43:15;2.20;;;1.10;;
13588;SDS011;6865;52.552;13.434;2023-04-24T14:45:42;1.85;;;1.20;;
13588;SDS011;6865;52.552;13.434;2023-04-24T14:48:08;2.72;;;1.33;;
13588;SDS011;6865;52.552;13.434;2023-04-24T14:50:37;2.75;;;1.30;;
13588;SDS011;6865;52.552;13.434;2023-04-24T14:53:03;0.90;;;0.90;;
13588;SDS011;6865;52.552;13.434;2023-04-24T14:55:31;1.40;;;1.30;;
13588;SDS011;6865;52.552;13.434;2023-04-24T14:58:02;2.55;;;1.25;;
13588;SDS011;6865;52.552;13.434;2023-04-24T15:00:31;1.25;;;1.10;;
13588;SDS011;6865;52.552;13.434;2023-04-24T15:02:58;1.40;;;1.10;;
13588;SDS011;6865;52.552;13.434;2023-04-24T15:05:27;1.98;;;1.35;;